createdAt,value
2017-11-26T00:01:17.501Z,87.03
2017-11-26T00:03:46.731Z,86.81
2017-11-26T00:06:15.966Z,87.45
2017-11-26T00:08:45.154Z,87.40
2017-11-26T00:11:14.450Z,87.55
2017-11-26T00:13:44.637Z,87.39
2017-11-26T00:16:14.619Z,87.17
2017-11-26T00:18:43.839Z,87.20
2017-11-26T00:21:13.094Z,86.77
2017-11-26T00:23:42.264Z,87.11
2017-11-26T00:26:11.526Z,86.89
2017-11-26T00:28:40.734Z,86.91
2017-11-26T00:31:10.721Z,86.81
2017-11-26T00:33:39.925Z,87.43
2017-11-26T00:36:09.169Z,87.20
2017-11-26T00:38:39.119Z,87.59
2017-11-26T00:41:09.121Z,87.86
2017-11-26T00:43:38.336Z,87.53
2017-11-26T00:46:07.563Z,87.38
2017-11-26T00:48:36.776Z,87.62
2017-11-26T00:51:06.736Z,87.12
2017-11-26T00:53:35.961Z,87.03
2017-11-26T00:56:05.179Z,86.93
2017-11-26T00:58:34.434Z,86.75
2017-11-26T01:01:03.674Z,86.54
2017-11-26T01:03:33.648Z,86.67
2017-11-26T01:06:02.948Z,86.42
2017-11-26T01:08:32.148Z,86.25
2017-11-26T01:11:01.363Z,86.08
2017-11-26T01:13:30.547Z,85.98
2017-11-26T01:15:59.794Z,85.87
2017-11-26T01:18:29.743Z,85.74
2017-11-26T01:20:59.008Z,85.89
2017-11-26T01:23:28.976Z,85.84
2017-11-26T01:25:58.964Z,86.06
2017-11-26T01:28:28.236Z,86.08
2017-11-26T01:30:58.192Z,86.05
2017-11-26T01:33:27.403Z,86.24
2017-11-26T01:35:57.497Z,86.57
2017-11-26T01:38:26.711Z,86.13
2017-11-26T01:40:55.909Z,86.29
2017-11-26T01:43:25.181Z,86.32
2017-11-26T01:45:54.416Z,86.27
2017-11-26T01:48:23.629Z,86.37
2017-11-26T01:50:52.856Z,85.92
2017-11-26T01:53:22.070Z,86.09
2017-11-26T01:55:52.991Z,86.13
2017-11-26T01:58:22.210Z,86.03
2017-11-26T02:00:51.600Z,86.23
2017-11-26T02:03:20.921Z,86.49
2017-11-26T02:05:50.133Z,86.17
2017-11-26T02:08:19.413Z,86.16
2017-11-26T02:10:48.619Z,86.48
2017-11-26T02:13:17.846Z,86.91
2017-11-26T02:15:47.035Z,87.27
2017-11-26T02:18:16.269Z,87.18
2017-11-26T02:20:48.012Z,87.49
2017-11-26T02:23:19.401Z,87.49
2017-11-26T02:25:48.588Z,87.86
2017-11-26T02:28:17.799Z,88.19
2017-11-26T02:30:47.029Z,88.31
2017-11-26T02:33:33.825Z,88.69
2017-11-26T02:36:17.882Z,88.86
2017-11-26T02:38:47.159Z,89.01
2017-11-26T02:41:16.350Z,89.06
2017-11-26T02:43:45.556Z,89.07
2017-11-26T02:46:14.799Z,88.90
2017-11-26T02:48:43.988Z,88.87
2017-11-26T02:51:13.209Z,88.47
2017-11-26T02:53:42.393Z,88.15
2017-11-26T02:56:11.661Z,88.06
2017-11-26T02:58:41.679Z,88.20
2017-11-26T03:01:10.972Z,87.89
2017-11-26T03:03:40.201Z,87.62
2017-11-26T03:06:09.458Z,87.60
2017-11-26T03:08:38.670Z,87.43
2017-11-26T03:11:07.890Z,87.83
2017-11-26T03:13:37.108Z,88.13
2017-11-26T03:16:07.262Z,88.07
2017-11-26T03:18:36.394Z,88.03
2017-11-26T03:21:05.713Z,88.14
2017-11-26T03:23:35.741Z,87.86
2017-11-26T03:26:05.711Z,88.05
2017-11-26T03:28:34.915Z,88.02
2017-11-26T03:31:04.158Z,88.04
2017-11-26T03:33:34.119Z,88.34
2017-11-26T03:36:03.345Z,88.03
2017-11-26T03:38:32.531Z,88.18
2017-11-26T03:41:01.753Z,88.26
2017-11-26T03:43:31.745Z,88.32
2017-11-26T03:46:00.948Z,88.11
2017-11-26T03:48:30.144Z,88.08
2017-11-26T03:50:59.338Z,88.33
2017-11-26T03:53:28.562Z,88.49
2017-11-26T03:55:58.502Z,88.68
2017-11-26T03:58:27.733Z,88.93
2017-11-26T04:00:57.116Z,88.75
2017-11-26T04:03:26.356Z,88.33
2017-11-26T04:05:55.564Z,88.50
2017-11-26T04:08:25.502Z,88.54
2017-11-26T04:10:54.721Z,88.38
2017-11-26T04:13:23.941Z,88.67
2017-11-26T04:15:53.953Z,88.59
2017-11-26T04:18:23.140Z,88.43
2017-11-26T04:20:52.456Z,88.40
2017-11-26T04:23:21.628Z,88.17
2017-11-26T04:25:50.883Z,88.26
2017-11-26T04:28:20.104Z,87.68
2017-11-26T04:30:50.057Z,87.69
2017-11-26T04:33:20.037Z,87.25
2017-11-26T04:35:49.241Z,87.29
2017-11-26T04:38:18.470Z,87.63
2017-11-26T04:40:47.675Z,87.42
2017-11-26T04:43:16.981Z,87.30
2017-11-26T04:45:46.201Z,87.18
2017-11-26T04:48:16.189Z,87.22
2017-11-26T05:03:35.297Z,86.26
2017-11-26T05:06:04.508Z,86.21
2017-11-26T05:08:33.728Z,86.18
2017-11-26T05:11:03.157Z,86.21
2017-11-26T05:13:33.151Z,86.14
2017-11-26T05:16:02.380Z,86.03
2017-11-26T05:18:32.326Z,86.06
2017-11-26T05:21:01.553Z,85.99
2017-11-26T05:23:30.731Z,86.13
2017-11-26T05:25:59.942Z,85.80
2017-11-26T05:28:29.155Z,86.03
2017-11-26T05:30:58.435Z,86.00
2017-11-26T05:33:27.664Z,86.12
2017-11-26T05:35:57.633Z,86.41
2017-11-26T05:38:26.871Z,85.88
2017-11-26T05:40:56.085Z,86.12
2017-11-26T05:43:26.060Z,86.12
2017-11-26T05:45:55.280Z,86.27
2017-11-26T05:48:24.481Z,86.17
2017-11-26T05:50:53.737Z,85.79
2017-11-26T05:53:23.032Z,86.00
2017-11-26T05:55:52.267Z,85.71
2017-11-26T05:58:21.499Z,85.88
2017-11-26T06:00:50.742Z,85.41
2017-11-26T06:03:19.927Z,85.54
2017-11-26T06:05:49.137Z,85.29
2017-11-26T06:08:18.381Z,85.43
2017-11-26T06:10:48.350Z,85.09
2017-11-26T06:13:17.589Z,85.63
2017-11-26T06:15:46.834Z,85.48
2017-11-26T06:18:16.048Z,85.54
2017-11-26T06:20:45.237Z,85.52
2017-11-26T06:23:14.450Z,85.62
2017-11-26T06:25:43.661Z,85.38
2017-11-26T06:28:12.852Z,85.38
2017-11-26T06:30:42.069Z,85.43
2017-11-26T06:33:12.031Z,85.24
2017-11-26T06:35:41.236Z,85.70
2017-11-26T06:38:10.447Z,85.71
2017-11-26T06:40:39.645Z,85.88
2017-11-26T06:43:08.853Z,85.59
2017-11-26T06:45:38.082Z,86.14
2017-11-26T06:48:08.057Z,85.82
2017-11-26T06:50:37.329Z,85.84
2017-11-26T06:53:06.526Z,85.82
2017-11-26T06:55:35.744Z,85.82
2017-11-26T06:58:04.950Z,85.90
2017-11-26T07:00:34.154Z,85.73
2017-11-26T07:03:03.368Z,86.01
2017-11-26T07:05:32.600Z,85.77
2017-11-26T07:08:01.816Z,85.88
2017-11-26T07:10:31.088Z,86.17
2017-11-26T07:13:00.296Z,86.02
2017-11-26T07:15:29.493Z,85.50
2017-11-26T07:17:58.721Z,85.52
2017-11-26T07:20:27.964Z,85.73
2017-11-26T07:22:57.273Z,85.54
2017-11-26T07:25:27.314Z,85.55
2017-11-26T07:27:57.402Z,85.46
2017-11-26T07:30:27.391Z,85.79
2017-11-26T07:32:56.595Z,85.47
2017-11-26T07:35:26.576Z,85.84
2017-11-26T07:37:55.800Z,85.57
2017-11-26T07:40:25.005Z,85.90
2017-11-26T07:42:54.197Z,86.04
2017-11-26T07:45:23.405Z,85.94
2017-11-26T07:47:52.656Z,85.74
2017-11-26T07:50:22.649Z,85.23
2017-11-26T07:52:51.881Z,85.98
2017-11-26T07:55:21.076Z,85.64
2017-11-26T07:57:50.314Z,85.73
2017-11-26T08:00:20.298Z,85.92
2017-11-26T08:02:49.524Z,85.36
2017-11-26T08:05:18.742Z,84.95
2017-11-26T08:07:48.705Z,85.34
2017-11-26T08:10:17.951Z,85.34
2017-11-26T08:12:47.937Z,85.84
2017-11-26T08:15:17.203Z,85.87
2017-11-26T08:17:46.446Z,85.95
2017-11-26T08:20:15.649Z,86.28
2017-11-26T08:22:45.642Z,86.21
2017-11-26T08:25:14.824Z,86.36
2017-11-26T08:27:44.022Z,86.37
2017-11-26T08:30:14.158Z,86.04
2017-11-26T08:32:43.364Z,86.08
2017-11-26T08:35:13.022Z,86.17
2017-11-26T08:37:42.281Z,85.41
2017-11-26T08:40:12.325Z,85.72
2017-11-26T08:42:41.768Z,85.97
2017-11-26T08:45:11.092Z,85.77
2017-11-26T08:47:41.173Z,86.66
2017-11-26T08:50:10.381Z,87.27
2017-11-26T08:52:39.640Z,87.62
2017-11-26T08:55:09.608Z,87.81
2017-11-26T08:57:38.835Z,87.67
2017-11-26T09:00:08.837Z,87.45
2017-11-26T09:02:38.084Z,87.94
2017-11-26T09:05:07.360Z,87.98
2017-11-26T09:07:42.225Z,87.70
2017-11-26T09:10:11.429Z,87.58
2017-11-26T09:12:40.660Z,87.77
2017-11-26T09:15:09.897Z,87.58
2017-11-26T09:17:39.066Z,86.87
2017-11-26T09:20:08.248Z,87.12
2017-11-26T09:22:38.243Z,87.02
2017-11-26T09:25:07.441Z,86.66
2017-11-26T09:27:36.670Z,86.57
2017-11-26T09:30:06.657Z,86.87
2017-11-26T09:32:36.093Z,86.90
2017-11-26T09:35:06.083Z,86.53
2017-11-26T09:37:35.372Z,85.84
2017-11-26T09:40:04.570Z,85.85
2017-11-26T09:42:34.010Z,85.44
2017-11-26T09:45:04.020Z,85.65
2017-11-26T09:47:33.984Z,85.18
2017-11-26T09:50:03.258Z,85.18
2017-11-26T09:52:32.630Z,85.00
2017-11-26T09:55:01.892Z,84.98
2017-11-26T09:57:31.245Z,85.32
2017-11-26T10:00:01.253Z,84.73
2017-11-26T10:02:31.239Z,84.80
2017-11-26T10:05:00.536Z,84.95
2017-11-26T10:07:29.760Z,84.39
2017-11-26T10:09:59.034Z,84.64
2017-11-26T10:12:28.291Z,84.80
2017-11-26T10:14:57.494Z,84.09
2017-11-26T10:17:26.712Z,83.97
2017-11-26T10:19:55.927Z,84.34
2017-11-26T10:22:25.138Z,84.12
2017-11-26T10:24:54.365Z,84.24
2017-11-26T10:27:23.613Z,84.32
2017-11-26T10:29:53.589Z,83.66
2017-11-26T10:32:22.817Z,83.96
2017-11-26T10:34:52.016Z,84.30
2017-11-26T10:37:21.293Z,83.70
2017-11-26T10:39:50.591Z,83.85
2017-11-26T10:42:19.808Z,84.20
2017-11-26T10:44:51.697Z,84.07
2017-11-26T10:47:20.888Z,83.92
2017-11-26T10:49:50.097Z,82.74
2017-11-26T10:52:19.344Z,82.64
2017-11-26T10:54:48.612Z,82.71
2017-11-26T10:57:18.585Z,82.31
2017-11-26T10:59:47.771Z,82.09
2017-11-26T11:02:16.974Z,82.46
2017-11-26T11:04:46.190Z,82.69
2017-11-26T11:07:15.385Z,81.98
2017-11-26T11:09:46.108Z,81.10
2017-11-26T11:12:15.353Z,82.18
2017-11-26T11:14:45.313Z,82.17
2017-11-26T11:17:14.524Z,81.85
2017-11-26T11:19:43.734Z,82.48
2017-11-26T11:22:12.957Z,81.25
2017-11-26T11:24:42.919Z,82.05
2017-11-26T11:27:12.139Z,82.07
2017-11-26T11:29:41.352Z,82.07
2017-11-26T11:32:10.592Z,81.62
2017-11-26T11:34:39.780Z,81.67
2017-11-26T11:37:08.996Z,82.29
2017-11-26T11:39:38.230Z,81.25
2017-11-26T11:42:07.468Z,81.67
2017-11-26T11:44:36.651Z,81.73
2017-11-26T11:47:06.631Z,81.16
2017-11-26T11:49:35.857Z,81.20
2017-11-26T11:52:05.821Z,81.74
2017-11-26T11:54:35.106Z,80.53
2017-11-26T11:57:04.323Z,81.55
2017-11-26T11:59:33.646Z,80.87
2017-11-26T12:02:02.849Z,80.96
2017-11-26T12:04:32.091Z,81.25
2017-11-26T12:07:01.272Z,80.29
2017-11-26T12:09:31.240Z,80.76
2017-11-26T12:12:00.461Z,81.87
2017-11-26T12:14:29.858Z,80.58
2017-11-26T12:16:59.040Z,81.04
2017-11-26T12:19:28.245Z,80.80
2017-11-26T12:21:57.484Z,80.67
2017-11-26T12:24:27.434Z,81.34
2017-11-26T12:26:56.636Z,80.42
2017-11-26T12:29:25.827Z,80.62
2017-11-26T12:31:55.071Z,79.83
2017-11-26T12:34:25.036Z,80.54
2017-11-26T12:36:54.258Z,80.60
2017-11-26T12:39:23.457Z,80.88
2017-11-26T12:41:52.744Z,80.91
2017-11-26T12:44:21.940Z,80.92
2017-11-26T12:46:51.128Z,79.65
2017-11-26T12:49:20.350Z,80.87
2017-11-26T12:51:49.577Z,80.07
2017-11-26T12:54:19.553Z,80.86
2017-11-26T12:56:49.054Z,80.05
2017-11-26T12:59:18.276Z,80.19
2017-11-26T13:01:47.468Z,79.73
2017-11-26T13:04:17.477Z,80.32
2017-11-26T13:06:47.458Z,79.76
2017-11-26T13:09:16.651Z,81.07
2017-11-26T13:11:45.817Z,80.49
2017-11-26T13:14:15.800Z,80.16
2017-11-26T13:16:45.178Z,80.00
2017-11-26T13:19:14.447Z,80.45
2017-11-26T13:21:44.460Z,80.19
2017-11-26T13:24:13.779Z,80.35
2017-11-26T13:26:42.996Z,80.26
2017-11-26T13:29:12.218Z,80.23
2017-11-26T13:31:41.511Z,80.65
2017-11-26T13:34:11.695Z,79.77
2017-11-26T13:36:40.924Z,80.25
2017-11-26T13:39:10.132Z,80.16
2017-11-26T13:41:39.354Z,79.83
2017-11-26T13:44:08.520Z,79.98
2017-11-26T13:46:37.767Z,79.36
2017-11-26T13:49:06.986Z,79.06
2017-11-26T13:51:36.209Z,79.33
2017-11-26T13:54:05.418Z,79.28
2017-11-26T13:56:34.600Z,79.65
2017-11-26T13:59:03.862Z,79.35
2017-11-26T14:01:33.078Z,79.94
2017-11-26T14:04:02.307Z,79.09
2017-11-26T14:06:31.558Z,78.81
2017-11-26T14:09:00.796Z,79.11
2017-11-26T14:11:30.027Z,79.19
2017-11-26T14:13:59.993Z,79.16
2017-11-26T14:16:29.348Z,78.96
2017-11-26T14:18:59.321Z,79.36
2017-11-26T14:21:28.524Z,79.45
2017-11-26T14:23:58.605Z,78.92
2017-11-26T14:26:27.907Z,79.52
2017-11-26T14:28:57.111Z,80.26
2017-11-26T14:31:26.354Z,81.51
2017-11-26T14:33:55.566Z,82.21
2017-11-26T14:36:25.508Z,81.56
2017-11-26T14:38:54.847Z,82.22
2017-11-26T14:41:24.042Z,82.18
2017-11-26T14:43:53.344Z,82.69
2017-11-26T14:46:22.541Z,82.64
2017-11-26T14:48:51.707Z,82.53
2017-11-26T14:51:20.939Z,82.51
2017-11-26T14:53:50.137Z,81.17
2017-11-26T14:56:19.430Z,81.86
2017-11-26T14:58:48.696Z,81.71
2017-11-26T15:01:17.862Z,81.25
2017-11-26T15:03:47.074Z,81.39
2017-11-26T15:06:16.304Z,81.19
2017-11-26T15:08:45.517Z,81.32
2017-11-26T15:11:14.712Z,80.81
2017-11-26T15:13:43.917Z,81.38
2017-11-26T15:16:13.140Z,81.22
2017-11-26T15:18:43.194Z,80.88
2017-11-26T15:21:12.394Z,80.32
2017-11-26T15:23:41.662Z,80.50
2017-11-26T15:26:10.903Z,80.61
2017-11-26T15:28:40.124Z,81.07
2017-11-26T15:31:09.285Z,80.87
2017-11-26T15:33:38.535Z,81.24
2017-11-26T15:36:07.745Z,81.66
2017-11-26T15:38:36.945Z,82.67
2017-11-26T15:41:06.936Z,83.81
2017-11-26T15:43:36.152Z,83.71
2017-11-26T15:46:05.361Z,83.56
2017-11-26T15:48:35.440Z,83.55
2017-11-26T15:51:04.714Z,83.41
2017-11-26T15:53:33.925Z,83.54
2017-11-26T15:56:03.175Z,83.98
2017-11-26T15:58:32.398Z,83.13
2017-11-26T16:01:01.566Z,83.23
2017-11-26T16:03:30.824Z,83.09
2017-11-26T16:05:59.980Z,83.35
2017-11-26T16:08:29.245Z,82.73
2017-11-26T16:10:58.483Z,82.18
2017-11-26T16:13:27.797Z,83.46
2017-11-26T16:15:57.067Z,85.34
2017-11-26T16:18:26.297Z,85.82
2017-11-26T16:20:55.514Z,86.02
2017-11-26T16:23:24.781Z,85.57
2017-11-26T16:25:53.958Z,86.13
2017-11-26T16:28:23.183Z,87.97
2017-11-26T16:30:52.492Z,88.37
2017-11-26T16:33:21.701Z,89.11
2017-11-26T16:35:52.491Z,89.22
2017-11-26T16:38:22.442Z,88.83
2017-11-26T16:40:51.717Z,90.29
2017-11-26T16:43:20.906Z,90.34
2017-11-26T16:45:50.142Z,89.30
2017-11-26T16:48:19.373Z,89.60
2017-11-26T16:50:49.355Z,88.46
2017-11-26T16:53:18.597Z,89.05
2017-11-26T16:55:48.687Z,89.49
2017-11-26T16:58:17.900Z,89.35
2017-11-26T17:00:47.963Z,89.37
2017-11-26T17:03:19.015Z,89.48
2017-11-26T17:05:49.072Z,89.54
2017-11-26T17:08:18.354Z,89.18
2017-11-26T17:10:47.537Z,89.23
2017-11-26T17:13:17.453Z,89.46
2017-11-26T17:15:46.638Z,89.56
2017-11-26T17:18:15.878Z,89.08
2017-11-26T17:20:45.877Z,88.83
2017-11-26T17:23:15.160Z,88.13
2017-11-26T17:25:44.451Z,88.32
2017-11-26T17:28:13.713Z,87.86
2017-11-26T17:30:43.652Z,88.39
2017-11-26T17:33:12.903Z,87.99
2017-11-26T17:35:42.121Z,88.24
2017-11-26T17:38:11.327Z,87.98
2017-11-26T17:40:40.625Z,88.30
2017-11-26T17:43:09.834Z,88.09
2017-11-26T17:45:39.077Z,87.95
2017-11-26T17:48:08.266Z,88.48
2017-11-26T17:50:37.500Z,88.14
2017-11-26T17:53:07.538Z,87.87
2017-11-26T17:55:36.761Z,87.79
2017-11-26T17:58:05.947Z,87.92
2017-11-26T18:00:35.701Z,87.39
2017-11-26T18:03:05.006Z,87.11
2017-11-26T18:05:34.232Z,87.03
2017-11-26T18:08:03.492Z,86.89
2017-11-26T18:10:32.755Z,86.71
2017-11-26T18:13:01.984Z,87.01
2017-11-26T18:15:31.953Z,86.47
2017-11-26T18:18:01.962Z,86.59
2017-11-26T18:20:31.268Z,86.49
2017-11-26T18:23:00.493Z,86.60
2017-11-26T18:25:29.939Z,86.71
2017-11-26T18:27:59.181Z,86.39
2017-11-26T18:30:28.490Z,86.50
2017-11-26T18:32:57.797Z,86.31
2017-11-26T18:35:27.828Z,86.10
2017-11-26T18:37:57.020Z,86.34
2017-11-26T18:40:26.374Z,86.20
2017-11-26T18:42:55.634Z,85.57
2017-11-26T18:45:25.640Z,85.94
2017-11-26T18:47:54.943Z,85.72
2017-11-26T18:50:24.224Z,85.75
2017-11-26T18:52:53.470Z,85.73
2017-11-26T18:55:23.457Z,85.62
2017-11-26T18:57:52.716Z,85.84
2017-11-26T19:00:21.937Z,85.76
2017-11-26T19:02:51.157Z,85.09
2017-11-26T19:05:20.460Z,85.66
2017-11-26T19:07:49.724Z,85.13
2017-11-26T19:10:19.003Z,85.11
2017-11-26T19:12:48.233Z,85.03
2017-11-26T19:15:17.597Z,85.33
2017-11-26T19:17:46.810Z,85.66
2017-11-26T19:20:16.046Z,85.63
2017-11-26T19:22:45.329Z,85.32
2017-11-26T19:25:15.369Z,85.22
2017-11-26T19:27:44.606Z,85.30
2017-11-26T19:30:13.921Z,85.47
2017-11-26T19:32:43.199Z,85.32
2017-11-26T19:35:12.629Z,84.85
2017-11-26T19:37:41.898Z,85.52
2017-11-26T19:40:11.903Z,85.37
2017-11-26T19:42:41.908Z,85.27
2017-11-26T19:45:11.897Z,85.49
2017-11-26T19:47:41.184Z,84.82
2017-11-26T19:50:11.180Z,84.62
2017-11-26T19:52:40.416Z,84.87
2017-11-26T19:55:10.514Z,84.77
2017-11-26T19:57:40.917Z,84.87
2017-11-26T20:00:10.180Z,84.50
2017-11-26T20:02:40.266Z,84.62
2017-11-26T20:05:09.581Z,84.88
2017-11-26T20:07:38.957Z,84.70
2017-11-26T20:10:08.223Z,84.70
2017-11-26T20:12:37.523Z,84.92
2017-11-26T20:15:07.477Z,85.37
2017-11-26T20:17:36.805Z,85.20
2017-11-26T20:20:07.571Z,85.50
2017-11-26T20:22:36.825Z,85.47
2017-11-26T20:25:06.127Z,85.38
2017-11-26T20:27:35.411Z,85.25
2017-11-26T20:30:04.641Z,84.86
2017-11-26T20:32:34.733Z,85.06
2017-11-26T20:35:03.965Z,84.87
2017-11-26T20:37:33.200Z,84.70
2017-11-26T20:40:02.458Z,84.60
2017-11-26T20:42:31.696Z,84.40
2017-11-26T20:45:00.931Z,84.66
2017-11-26T20:47:30.172Z,84.67
2017-11-26T20:49:59.401Z,84.77
2017-11-26T20:52:28.725Z,84.72
2017-11-26T20:54:57.934Z,85.10
2017-11-26T20:57:27.237Z,84.75
2017-11-26T20:59:56.487Z,85.06
2017-11-26T21:02:25.706Z,84.91
2017-11-26T21:04:54.979Z,84.84
2017-11-26T21:07:24.221Z,84.74
2017-11-26T21:09:53.598Z,84.69
2017-11-26T21:12:22.793Z,84.45
2017-11-26T21:14:52.049Z,84.96
2017-11-26T21:17:22.066Z,84.91
2017-11-26T21:19:52.061Z,84.79
2017-11-26T21:22:21.330Z,84.77
2017-11-26T21:24:50.796Z,84.80
2017-11-26T21:27:20.016Z,84.93
2017-11-26T21:29:49.253Z,84.63
2017-11-26T21:32:18.422Z,84.65
2017-11-26T21:34:47.738Z,84.42
2017-11-26T21:37:16.986Z,84.25
2017-11-26T21:39:46.323Z,84.09
2017-11-26T21:42:15.684Z,83.69
2017-11-26T21:44:44.895Z,83.81
2017-11-26T21:47:14.088Z,83.86
2017-11-26T21:49:43.383Z,83.78
2017-11-26T21:52:13.369Z,83.83
2017-11-26T21:54:43.736Z,83.72
2017-11-26T21:57:12.944Z,83.56
2017-11-26T21:59:42.153Z,83.71
2017-11-26T22:02:11.429Z,84.06
2017-11-26T22:04:40.643Z,83.98
2017-11-26T22:07:09.885Z,84.52
2017-11-26T22:09:39.890Z,84.46
2017-11-26T22:12:09.274Z,84.50
2017-11-26T22:14:38.512Z,84.93
2017-11-26T22:17:07.735Z,84.83
2017-11-26T22:19:36.993Z,85.02
2017-11-26T22:22:06.997Z,85.03
2017-11-26T22:24:36.236Z,85.25
2017-11-26T22:27:05.615Z,85.30
2017-11-26T22:29:35.727Z,85.31
2017-11-26T22:32:05.699Z,86.31
2017-11-26T22:34:34.914Z,86.70
2017-11-26T22:37:04.136Z,87.13
2017-11-26T22:39:33.356Z,87.49
2017-11-26T22:42:02.599Z,87.67
2017-11-26T22:44:31.892Z,87.63
2017-11-26T22:47:01.861Z,87.75
2017-11-26T22:49:31.116Z,87.45
2017-11-26T22:52:00.317Z,87.85
2017-11-26T22:54:29.563Z,87.48
2017-11-26T22:56:58.780Z,88.39
2017-11-26T22:59:27.975Z,88.79
2017-11-26T23:01:57.219Z,88.74
2017-11-26T23:04:26.421Z,88.57
2017-11-26T23:06:55.629Z,88.87
2017-11-26T23:09:25.659Z,88.67
2017-11-26T23:11:55.622Z,89.10
2017-11-26T23:14:24.816Z,89.05
2017-11-26T23:16:54.801Z,89.07
2017-11-26T23:19:24.009Z,89.06
2017-11-26T23:21:53.309Z,89.36
2017-11-26T23:24:23.296Z,89.30
2017-11-26T23:26:52.479Z,88.86
2017-11-26T23:29:21.668Z,88.81
2017-11-26T23:31:50.856Z,88.93
2017-11-26T23:34:20.100Z,88.95
2017-11-26T23:36:49.337Z,89.39
2017-11-26T23:39:19.342Z,89.45
2017-11-26T23:41:48.549Z,89.48
2017-11-26T23:44:17.765Z,89.45
2017-11-26T23:46:46.997Z,89.42
2017-11-26T23:49:16.978Z,89.68
2017-11-26T23:51:46.192Z,89.72
2017-11-26T23:54:16.169Z,89.67
2017-11-26T23:56:45.369Z,89.80
2017-11-26T23:59:14.560Z,89.67
